University of NC, North Carolina
Current Conditions -  °F | °C
As of 6:53 AM on Friday 28 Nov 2014 (Local Time) from KILM Reporting Station
Clear Clear  
Wind Chill: 26°   Ceiling: Unl
Heat Index: 32°   Visibility: 10mi
Dew Point: 26°   Wind: 7mph
Humidity: 79%   Direction: 310°NW
Pressure: 30.33"   Gusts: NA
Location:  34.2215°N, 77.8804°W
Report Text: KILM 281153Z 31006KT 10SM CLR 00/M03 A3033 RMK AO2 SLP269 T00001033 10028 21006 53018
Loading
Personal Weather Stations






























Interactive Weather Map New forecast layout! Learn more

10-Day Weather Forecast

Advertisements
Track Severe Weather on mobile